sensor_id;sensor_type;location;lat;lon;timestamp;temperature;humidity
52787;DHT22;38661;53.152;5.846;2024-03-08T00:00:23;2.10;92.30
52787;DHT22;38661;53.152;5.846;2024-03-08T00:02:49;2.10;92.20
52787;DHT22;38661;53.152;5.846;2024-03-08T00:05:18;2.10;92.20
52787;DHT22;38661;53.152;5.846;2024-03-08T00:07:43;2.10;92.20
52787;DHT22;38661;53.152;5.846;2024-03-08T00:10:11;2.20;92.10
52787;DHT22;38661;53.152;5.846;2024-03-08T00:12:38;2.20;92.20
52787;DHT22;38661;53.152;5.846;2024-03-08T00:15:04;2.20;92.20
52787;DHT22;38661;53.152;5.846;2024-03-08T00:17:31;2.20;92.20
52787;DHT22;38661;53.152;5.846;2024-03-08T00:19:57;2.10;92.10
52787;DHT22;38661;53.152;5.846;2024-03-08T00:22:23;2.10;92.20
52787;DHT22;38661;53.152;5.846;2024-03-08T00:24:49;2.10;92.20
52787;DHT22;38661;53.152;5.846;2024-03-08T00:27:17;2.10;92.30
52787;DHT22;38661;53.152;5.846;2024-03-08T00:29:46;2.10;92.30
52787;DHT22;38661;53.152;5.846;2024-03-08T00:32:12;2.00;92.20
52787;DHT22;38661;53.152;5.846;2024-03-08T00:34:38;2.00;92.20
52787;DHT22;38661;53.152;5.846;2024-03-08T00:37:04;2.00;92.20
52787;DHT22;38661;53.152;5.846;2024-03-08T00:39:30;2.00;92.30
52787;DHT22;38661;53.152;5.846;2024-03-08T00:41:56;2.00;92.30
52787;DHT22;38661;53.152;5.846;2024-03-08T00:44:22;2.00;92.30
52787;DHT22;38661;53.152;5.846;2024-03-08T00:46:48;2.00;92.30
52787;DHT22;38661;53.152;5.846;2024-03-08T00:49:15;2.00;92.30
52787;DHT22;38661;53.152;5.846;2024-03-08T00:51:40;2.00;92.30
52787;DHT22;38661;53.152;5.846;2024-03-08T00:54:06;2.00;92.30
52787;DHT22;38661;53.152;5.846;2024-03-08T00:56:32;2.00;92.30
52787;DHT22;38661;53.152;5.846;2024-03-08T00:58:59;2.00;92.40
52787;DHT22;38661;53.152;5.846;2024-03-08T01:01:25;1.90;92.30
52787;DHT22;38661;53.152;5.846;2024-03-08T01:03:51;2.00;92.40
52787;DHT22;38661;53.152;5.846;2024-03-08T01:06:17;2.00;92.40
52787;DHT22;38661;53.152;5.846;2024-03-08T01:08:44;1.90;92.40
52787;DHT22;38661;53.152;5.846;2024-03-08T01:11:12;1.90;92.30
52787;DHT22;38661;53.152;5.846;2024-03-08T01:13:38;1.90;92.40
52787;DHT22;38661;53.152;5.846;2024-03-08T01:16:04;1.90;92.40
52787;DHT22;38661;53.152;5.846;2024-03-08T01:18:29;1.90;92.40
52787;DHT22;38661;53.152;5.846;2024-03-08T01:20:55;1.80;92.40
52787;DHT22;38661;53.152;5.846;2024-03-08T01:23:21;1.80;92.50
52787;DHT22;38661;53.152;5.846;2024-03-08T01:25:47;1.80;92.50
52787;DHT22;38661;53.152;5.846;2024-03-08T01:28:17;1.70;92.40
52787;DHT22;38661;53.152;5.846;2024-03-08T01:30:43;1.70;92.60
52787;DHT22;38661;53.152;5.846;2024-03-08T01:33:09;1.70;92.40
52787;DHT22;38661;53.152;5.846;2024-03-08T01:35:35;1.70;92.60
52787;DHT22;38661;53.152;5.846;2024-03-08T01:38:01;1.60;92.50
52787;DHT22;38661;53.152;5.846;2024-03-08T01:40:26;1.60;92.60
52787;DHT22;38661;53.152;5.846;2024-03-08T01:42:52;1.60;92.60
52787;DHT22;38661;53.152;5.846;2024-03-08T01:45:19;1.50;92.60
52787;DHT22;38661;53.152;5.846;2024-03-08T01:47:45;1.50;92.80
52787;DHT22;38661;53.152;5.846;2024-03-08T01:50:13;1.50;92.80
52787;DHT22;38661;53.152;5.846;2024-03-08T01:52:39;1.50;92.80
52787;DHT22;38661;53.152;5.846;2024-03-08T01:55:05;1.50;92.80
52787;DHT22;38661;53.152;5.846;2024-03-08T01:57:32;1.40;92.90
52787;DHT22;38661;53.152;5.846;2024-03-08T02:00:04;1.40;92.90
52787;DHT22;38661;53.152;5.846;2024-03-08T02:02:32;1.40;92.90
52787;DHT22;38661;53.152;5.846;2024-03-08T02:05:00;1.40;92.90
52787;DHT22;38661;53.152;5.846;2024-03-08T02:07:26;1.40;92.90
52787;DHT22;38661;53.152;5.846;2024-03-08T02:09:52;1.40;93.00
52787;DHT22;38661;53.152;5.846;2024-03-08T02:12:18;1.40;92.80
52787;DHT22;38661;53.152;5.846;2024-03-08T02:14:46;1.30;92.90
52787;DHT22;38661;53.152;5.846;2024-03-08T02:17:12;1.30;92.90
52787;DHT22;38661;53.152;5.846;2024-03-08T02:19:38;1.30;92.90
52787;DHT22;38661;53.152;5.846;2024-03-08T02:22:05;1.30;92.90
52787;DHT22;38661;53.152;5.846;2024-03-08T02:24:32;1.30;92.90
52787;DHT22;38661;53.152;5.846;2024-03-08T02:26:58;1.20;92.80
52787;DHT22;38661;53.152;5.846;2024-03-08T02:29:24;1.20;92.90
52787;DHT22;38661;53.152;5.846;2024-03-08T02:31:53;1.20;93.00
52787;DHT22;38661;53.152;5.846;2024-03-08T02:34:18;1.20;93.00
52787;DHT22;38661;53.152;5.846;2024-03-08T02:36:45;1.20;93.00
52787;DHT22;38661;53.152;5.846;2024-03-08T02:39:12;1.20;93.00
52787;DHT22;38661;53.152;5.846;2024-03-08T02:41:38;1.20;93.00
52787;DHT22;38661;53.152;5.846;2024-03-08T02:44:04;1.20;93.10
52787;DHT22;38661;53.152;5.846;2024-03-08T02:46:30;1.20;93.00
52787;DHT22;38661;53.152;5.846;2024-03-08T02:48:56;1.10;93.10
52787;DHT22;38661;53.152;5.846;2024-03-08T02:51:21;1.20;93.10
52787;DHT22;38661;53.152;5.846;2024-03-08T02:53:47;1.10;93.10
52787;DHT22;38661;53.152;5.846;2024-03-08T02:56:14;1.10;93.10
52787;DHT22;38661;53.152;5.846;2024-03-08T02:58:42;1.10;93.10
52787;DHT22;38661;53.152;5.846;2024-03-08T03:01:08;1.10;93.00
52787;DHT22;38661;53.152;5.846;2024-03-08T03:03:35;1.10;93.00
52787;DHT22;38661;53.152;5.846;2024-03-08T03:06:02;1.10;93.00
52787;DHT22;38661;53.152;5.846;2024-03-08T03:08:28;1.10;93.00
52787;DHT22;38661;53.152;5.846;2024-03-08T03:10:53;1.10;93.00
52787;DHT22;38661;53.152;5.846;2024-03-08T03:13:22;1.20;92.90
52787;DHT22;38661;53.152;5.846;2024-03-08T03:15:49;1.30;92.90
52787;DHT22;38661;53.152;5.846;2024-03-08T03:18:14;1.30;92.90
52787;DHT22;38661;53.152;5.846;2024-03-08T03:20:41;1.30;92.90
52787;DHT22;38661;53.152;5.846;2024-03-08T03:23:08;1.30;92.90
52787;DHT22;38661;53.152;5.846;2024-03-08T03:25:35;1.30;92.80
52787;DHT22;38661;53.152;5.846;2024-03-08T03:28:01;1.30;92.80
52787;DHT22;38661;53.152;5.846;2024-03-08T03:30:27;1.40;92.70
52787;DHT22;38661;53.152;5.846;2024-03-08T03:32:59;1.30;92.80
52787;DHT22;38661;53.152;5.846;2024-03-08T03:35:26;1.40;92.80
52787;DHT22;38661;53.152;5.846;2024-03-08T03:37:52;1.40;92.70
52787;DHT22;38661;53.152;5.846;2024-03-08T03:40:36;1.40;92.70
52787;DHT22;38661;53.152;5.846;2024-03-08T03:43:03;1.30;92.70
52787;DHT22;38661;53.152;5.846;2024-03-08T03:45:29;1.30;92.60
52787;DHT22;38661;53.152;5.846;2024-03-08T03:47:55;1.20;92.70
52787;DHT22;38661;53.152;5.846;2024-03-08T03:50:21;1.20;92.70
52787;DHT22;38661;53.152;5.846;2024-03-08T03:52:50;1.20;92.60
52787;DHT22;38661;53.152;5.846;2024-03-08T03:55:16;1.30;92.80
52787;DHT22;38661;53.152;5.846;2024-03-08T03:57:42;1.20;92.70
52787;DHT22;38661;53.152;5.846;2024-03-08T04:00:09;1.20;92.80
52787;DHT22;38661;53.152;5.846;2024-03-08T04:02:39;1.20;92.80
52787;DHT22;38661;53.152;5.846;2024-03-08T04:05:06;1.20;92.70
52787;DHT22;38661;53.152;5.846;2024-03-08T04:07:32;1.40;92.80
52787;DHT22;38661;53.152;5.846;2024-03-08T04:09:58;1.30;92.70
52787;DHT22;38661;53.152;5.846;2024-03-08T04:12:23;1.30;92.80
52787;DHT22;38661;53.152;5.846;2024-03-08T04:14:49;1.30;92.80
52787;DHT22;38661;53.152;5.846;2024-03-08T04:17:15;1.40;92.80
52787;DHT22;38661;53.152;5.846;2024-03-08T04:19:42;1.20;92.30
52787;DHT22;38661;53.152;5.846;2024-03-08T04:22:07;1.20;92.80
52787;DHT22;38661;53.152;5.846;2024-03-08T04:24:33;1.20;92.60
52787;DHT22;38661;53.152;5.846;2024-03-08T04:26:59;1.20;92.70
52787;DHT22;38661;53.152;5.846;2024-03-08T04:29:25;1.20;92.80
52787;DHT22;38661;53.152;5.846;2024-03-08T04:31:52;1.20;92.70
52787;DHT22;38661;53.152;5.846;2024-03-08T04:34:20;1.20;92.70
52787;DHT22;38661;53.152;5.846;2024-03-08T04:36:48;1.20;92.80
52787;DHT22;38661;53.152;5.846;2024-03-08T04:39:14;1.20;92.70
52787;DHT22;38661;53.152;5.846;2024-03-08T04:41:41;1.10;92.40
52787;DHT22;38661;53.152;5.846;2024-03-08T04:44:09;1.10;92.60
52787;DHT22;38661;53.152;5.846;2024-03-08T04:46:36;1.20;92.60
52787;DHT22;38661;53.152;5.846;2024-03-08T04:49:01;1.20;92.60
52787;DHT22;38661;53.152;5.846;2024-03-08T04:51:27;1.20;92.70
52787;DHT22;38661;53.152;5.846;2024-03-08T04:53:53;1.10;92.40
52787;DHT22;38661;53.152;5.846;2024-03-08T04:56:19;1.10;92.60
52787;DHT22;38661;53.152;5.846;2024-03-08T04:58:45;1.10;92.50
52787;DHT22;38661;53.152;5.846;2024-03-08T05:01:14;1.10;92.70
52787;DHT22;38661;53.152;5.846;2024-03-08T05:03:39;1.10;92.50
52787;DHT22;38661;53.152;5.846;2024-03-08T05:06:05;1.00;92.30
52787;DHT22;38661;53.152;5.846;2024-03-08T05:08:31;1.10;92.60
52787;DHT22;38661;53.152;5.846;2024-03-08T05:10:57;1.00;92.50
52787;DHT22;38661;53.152;5.846;2024-03-08T05:13:22;1.00;92.60
52787;DHT22;38661;53.152;5.846;2024-03-08T05:15:51;1.00;92.40
52787;DHT22;38661;53.152;5.846;2024-03-08T05:18:17;0.90;92.50
52787;DHT22;38661;53.152;5.846;2024-03-08T05:20:43;0.90;92.40
52787;DHT22;38661;53.152;5.846;2024-03-08T05:23:09;0.90;92.70
52787;DHT22;38661;53.152;5.846;2024-03-08T05:25:36;0.90;92.60
52787;DHT22;38661;53.152;5.846;2024-03-08T05:28:01;0.90;92.60
52787;DHT22;38661;53.152;5.846;2024-03-08T05:30:27;1.00;92.80
52787;DHT22;38661;53.152;5.846;2024-03-08T05:32:53;0.90;92.70
52787;DHT22;38661;53.152;5.846;2024-03-08T05:35:18;0.90;92.70
52787;DHT22;38661;53.152;5.846;2024-03-08T05:37:44;0.90;92.60
52787;DHT22;38661;53.152;5.846;2024-03-08T05:40:10;0.80;92.50
52787;DHT22;38661;53.152;5.846;2024-03-08T05:42:36;0.80;92.70
52787;DHT22;38661;53.152;5.846;2024-03-08T05:45:03;0.90;92.80
52787;DHT22;38661;53.152;5.846;2024-03-08T05:47:28;0.80;92.70
52787;DHT22;38661;53.152;5.846;2024-03-08T05:49:54;0.80;92.80
52787;DHT22;38661;53.152;5.846;2024-03-08T05:52:20;0.70;92.50
52787;DHT22;38661;53.152;5.846;2024-03-08T05:54:46;0.70;92.50
52787;DHT22;38661;53.152;5.846;2024-03-08T05:57:12;0.60;92.60
52787;DHT22;38661;53.152;5.846;2024-03-08T05:59:39;0.70;92.70
52787;DHT22;38661;53.152;5.846;2024-03-08T06:02:05;0.70;92.80
52787;DHT22;38661;53.152;5.846;2024-03-08T06:04:31;0.80;92.80
52787;DHT22;38661;53.152;5.846;2024-03-08T06:06:58;0.80;92.80
52787;DHT22;38661;53.152;5.846;2024-03-08T06:09:24;0.70;92.50
52787;DHT22;38661;53.152;5.846;2024-03-08T06:11:53;0.70;92.80
52787;DHT22;38661;53.152;5.846;2024-03-08T06:14:19;0.70;92.60
52787;DHT22;38661;53.152;5.846;2024-03-08T06:16:46;0.70;92.80
52787;DHT22;38661;53.152;5.846;2024-03-08T06:19:12;0.60;92.80
52787;DHT22;38661;53.152;5.846;2024-03-08T06:21:39;0.70;92.80
52787;DHT22;38661;53.152;5.846;2024-03-08T06:24:05;0.70;92.80
52787;DHT22;38661;53.152;5.846;2024-03-08T06:26:30;0.60;92.80
52787;DHT22;38661;53.152;5.846;2024-03-08T06:28:57;0.60;92.80
52787;DHT22;38661;53.152;5.846;2024-03-08T06:31:22;0.60;92.70
52787;DHT22;38661;53.152;5.846;2024-03-08T06:33:49;0.60;92.80
52787;DHT22;38661;53.152;5.846;2024-03-08T06:36:18;0.60;92.80
52787;DHT22;38661;53.152;5.846;2024-03-08T06:38:45;0.60;92.80
52787;DHT22;38661;53.152;5.846;2024-03-08T06:41:11;0.60;92.90
52787;DHT22;38661;53.152;5.846;2024-03-08T06:43:44;0.60;92.90
52787;DHT22;38661;53.152;5.846;2024-03-08T06:46:10;0.60;92.80
52787;DHT22;38661;53.152;5.846;2024-03-08T06:48:39;0.70;92.90
52787;DHT22;38661;53.152;5.846;2024-03-08T06:51:05;0.70;92.80
52787;DHT22;38661;53.152;5.846;2024-03-08T06:53:31;0.70;92.90
52787;DHT22;38661;53.152;5.846;2024-03-08T06:55:57;0.70;92.90
52787;DHT22;38661;53.152;5.846;2024-03-08T06:58:23;0.80;92.90
52787;DHT22;38661;53.152;5.846;2024-03-08T07:00:49;0.80;92.90
52787;DHT22;38661;53.152;5.846;2024-03-08T07:03:18;0.80;92.90
52787;DHT22;38661;53.152;5.846;2024-03-08T07:05:44;0.80;92.80
52787;DHT22;38661;53.152;5.846;2024-03-08T07:08:09;0.90;92.90
52787;DHT22;38661;53.152;5.846;2024-03-08T07:10:35;0.90;92.90
52787;DHT22;38661;53.152;5.846;2024-03-08T07:13:03;0.90;92.90
52787;DHT22;38661;53.152;5.846;2024-03-08T07:15:28;1.00;92.90
52787;DHT22;38661;53.152;5.846;2024-03-08T07:17:55;1.00;92.70
52787;DHT22;38661;53.152;5.846;2024-03-08T07:20:21;1.00;92.80
52787;DHT22;38661;53.152;5.846;2024-03-08T07:22:47;1.10;92.80
52787;DHT22;38661;53.152;5.846;2024-03-08T07:25:14;1.10;92.60
52787;DHT22;38661;53.152;5.846;2024-03-08T07:27:51;1.10;92.70
52787;DHT22;38661;53.152;5.846;2024-03-08T07:30:18;1.30;92.70
52787;DHT22;38661;53.152;5.846;2024-03-08T07:33:02;1.30;92.70
52787;DHT22;38661;53.152;5.846;2024-03-08T07:35:28;1.40;92.50
52787;DHT22;38661;53.152;5.846;2024-03-08T07:37:54;1.40;92.50
52787;DHT22;38661;53.152;5.846;2024-03-08T07:40:21;1.50;92.50
52787;DHT22;38661;53.152;5.846;2024-03-08T07:42:47;1.60;92.50
52787;DHT22;38661;53.152;5.846;2024-03-08T07:45:12;1.60;92.30
52787;DHT22;38661;53.152;5.846;2024-03-08T07:47:38;1.60;92.30
52787;DHT22;38661;53.152;5.846;2024-03-08T07:50:06;1.70;92.20
52787;DHT22;38661;53.152;5.846;2024-03-08T07:52:34;1.70;92.10
52787;DHT22;38661;53.152;5.846;2024-03-08T07:55:00;1.80;92.10
52787;DHT22;38661;53.152;5.846;2024-03-08T07:57:26;1.80;91.90
52787;DHT22;38661;53.152;5.846;2024-03-08T07:59:52;1.90;91.80
52787;DHT22;38661;53.152;5.846;2024-03-08T08:02:17;2.00;91.90
52787;DHT22;38661;53.152;5.846;2024-03-08T08:04:44;2.10;91.60
52787;DHT22;38661;53.152;5.846;2024-03-08T08:07:10;2.10;91.50
52787;DHT22;38661;53.152;5.846;2024-03-08T08:09:36;2.20;91.40
52787;DHT22;38661;53.152;5.846;2024-03-08T08:12:03;2.30;91.50
52787;DHT22;38661;53.152;5.846;2024-03-08T08:14:30;2.40;91.30
52787;DHT22;38661;53.152;5.846;2024-03-08T08:16:56;2.40;91.30
52787;DHT22;38661;53.152;5.846;2024-03-08T08:19:23;2.60;91.30
52787;DHT22;38661;53.152;5.846;2024-03-08T08:21:49;2.60;91.10
52787;DHT22;38661;53.152;5.846;2024-03-08T08:24:15;2.70;90.90
52787;DHT22;38661;53.152;5.846;2024-03-08T08:26:41;2.80;90.90
52787;DHT22;38661;53.152;5.846;2024-03-08T08:29:07;2.90;90.80
52787;DHT22;38661;53.152;5.846;2024-03-08T08:31:33;3.00;90.60
52787;DHT22;38661;53.152;5.846;2024-03-08T08:33:59;3.00;90.20
52787;DHT22;38661;53.152;5.846;2024-03-08T08:36:25;3.10;90.00
52787;DHT22;38661;53.152;5.846;2024-03-08T08:38:51;3.20;90.00
52787;DHT22;38661;53.152;5.846;2024-03-08T08:41:20;3.30;90.00
52787;DHT22;38661;53.152;5.846;2024-03-08T08:43:47;3.40;89.80
52787;DHT22;38661;53.152;5.846;2024-03-08T08:46:17;3.50;89.60
52787;DHT22;38661;53.152;5.846;2024-03-08T08:48:44;3.60;89.30
52787;DHT22;38661;53.152;5.846;2024-03-08T08:51:13;3.70;89.30
52787;DHT22;38661;53.152;5.846;2024-03-08T08:53:41;3.80;89.10
52787;DHT22;38661;53.152;5.846;2024-03-08T08:56:11;3.90;88.90
52787;DHT22;38661;53.152;5.846;2024-03-08T08:58:42;4.00;88.40
52787;DHT22;38661;53.152;5.846;2024-03-08T09:01:10;4.10;87.80
52787;DHT22;38661;53.152;5.846;2024-03-08T09:03:37;4.20;86.80
52787;DHT22;38661;53.152;5.846;2024-03-08T09:06:06;4.30;86.70
52787;DHT22;38661;53.152;5.846;2024-03-08T09:08:41;4.40;86.80
52787;DHT22;38661;53.152;5.846;2024-03-08T09:11:06;4.50;87.00
52787;DHT22;38661;53.152;5.846;2024-03-08T09:13:32;4.50;84.80
52787;DHT22;38661;53.152;5.846;2024-03-08T09:16:02;4.60;84.30
52787;DHT22;38661;53.152;5.846;2024-03-08T09:18:30;4.60;83.30
52787;DHT22;38661;53.152;5.846;2024-03-08T09:20:58;4.80;83.20
52787;DHT22;38661;53.152;5.846;2024-03-08T09:23:25;4.80;82.10
52787;DHT22;38661;53.152;5.846;2024-03-08T09:25:56;4.90;82.30
52787;DHT22;38661;53.152;5.846;2024-03-08T09:28:23;4.90;81.80
52787;DHT22;38661;53.152;5.846;2024-03-08T09:30:49;5.00;80.30
52787;DHT22;38661;53.152;5.846;2024-03-08T09:33:15;5.00;79.60
52787;DHT22;38661;53.152;5.846;2024-03-08T09:35:45;5.00;79.20
52787;DHT22;38661;53.152;5.846;2024-03-08T09:38:12;5.10;78.20
52787;DHT22;38661;53.152;5.846;2024-03-08T09:40:42;5.10;77.70
52787;DHT22;38661;53.152;5.846;2024-03-08T09:43:08;5.30;78.60
52787;DHT22;38661;53.152;5.846;2024-03-08T09:45:36;5.30;77.90
52787;DHT22;38661;53.152;5.846;2024-03-08T09:48:10;5.40;77.00
52787;DHT22;38661;53.152;5.846;2024-03-08T09:50:42;5.50;78.50
52787;DHT22;38661;53.152;5.846;2024-03-08T09:53:09;5.60;77.70
52787;DHT22;38661;53.152;5.846;2024-03-08T09:55:37;5.70;76.50
52787;DHT22;38661;53.152;5.846;2024-03-08T09:58:06;5.80;77.10
52787;DHT22;38661;53.152;5.846;2024-03-08T10:00:51;5.90;77.90
52787;DHT22;38661;53.152;5.846;2024-03-08T10:03:17;6.00;77.80
52787;DHT22;38661;53.152;5.846;2024-03-08T10:05:44;6.10;77.70
52787;DHT22;38661;53.152;5.846;2024-03-08T10:08:10;6.20;78.00
52787;DHT22;38661;53.152;5.846;2024-03-08T10:10:39;6.30;76.50
52787;DHT22;38661;53.152;5.846;2024-03-08T10:13:09;6.40;77.30
52787;DHT22;38661;53.152;5.846;2024-03-08T10:15:39;6.50;77.70
52787;DHT22;38661;53.152;5.846;2024-03-08T10:18:06;6.70;77.40
52787;DHT22;38661;53.152;5.846;2024-03-08T10:20:32;6.70;76.80
52787;DHT22;38661;53.152;5.846;2024-03-08T10:23:02;6.70;75.20
52787;DHT22;38661;53.152;5.846;2024-03-08T10:25:31;6.80;75.90
52787;DHT22;38661;53.152;5.846;2024-03-08T10:27:57;6.80;75.60
52787;DHT22;38661;53.152;5.846;2024-03-08T10:30:23;6.80;75.10
52787;DHT22;38661;53.152;5.846;2024-03-08T10:32:49;7.00;76.20
52787;DHT22;38661;53.152;5.846;2024-03-08T10:35:15;7.00;75.00
52787;DHT22;38661;53.152;5.846;2024-03-08T10:37:46;7.10;75.00
52787;DHT22;38661;53.152;5.846;2024-03-08T10:40:19;7.10;74.40
52787;DHT22;38661;53.152;5.846;2024-03-08T10:42:59;7.20;74.20
52787;DHT22;38661;53.152;5.846;2024-03-08T10:45:33;7.30;75.10
52787;DHT22;38661;53.152;5.846;2024-03-08T10:48:31;7.40;75.60
52787;DHT22;38661;53.152;5.846;2024-03-08T10:50:58;7.50;74.10
52787;DHT22;38661;53.152;5.846;2024-03-08T10:53:27;7.50;74.10
52787;DHT22;38661;53.152;5.846;2024-03-08T10:55:53;7.60;74.00
52787;DHT22;38661;53.152;5.846;2024-03-08T10:58:21;7.70;74.10
52787;DHT22;38661;53.152;5.846;2024-03-08T11:00:48;7.80;72.30
52787;DHT22;38661;53.152;5.846;2024-03-08T11:06:17;8.00;73.40
52787;DHT22;38661;53.152;5.846;2024-03-08T11:08:46;8.10;73.60
52787;DHT22;38661;53.152;5.846;2024-03-08T11:11:31;8.30;73.70
52787;DHT22;38661;53.152;5.846;2024-03-08T11:13:58;8.30;71.30
52787;DHT22;38661;53.152;5.846;2024-03-08T11:19:00;8.60;72.50
52787;DHT22;38661;53.152;5.846;2024-03-08T11:21:33;8.70;72.50
52787;DHT22;38661;53.152;5.846;2024-03-08T11:24:06;8.70;71.40
52787;DHT22;38661;53.152;5.846;2024-03-08T11:26:33;8.70;71.20
52787;DHT22;38661;53.152;5.846;2024-03-08T11:32:17;9.00;71.20
52787;DHT22;38661;53.152;5.846;2024-03-08T11:34:46;9.20;71.40
52787;DHT22;38661;53.152;5.846;2024-03-08T11:37:15;9.30;71.20
52787;DHT22;38661;53.152;5.846;2024-03-08T11:39:47;9.50;70.70
52787;DHT22;38661;53.152;5.846;2024-03-08T11:42:14;9.50;70.60
52787;DHT22;38661;53.152;5.846;2024-03-08T11:44:43;9.60;70.70
52787;DHT22;38661;53.152;5.846;2024-03-08T11:47:13;9.80;70.20
52787;DHT22;38661;53.152;5.846;2024-03-08T11:49:40;9.90;69.20
52787;DHT22;38661;53.152;5.846;2024-03-08T11:52:17;10.00;68.50
52787;DHT22;38661;53.152;5.846;2024-03-08T11:54:56;9.90;66.30
52787;DHT22;38661;53.152;5.846;2024-03-08T11:57:23;10.10;67.70
52787;DHT22;38661;53.152;5.846;2024-03-08T11:59:53;10.30;68.20
52787;DHT22;38661;53.152;5.846;2024-03-08T12:02:19;10.30;66.00
52787;DHT22;38661;53.152;5.846;2024-03-08T12:04:45;10.30;65.90
52787;DHT22;38661;53.152;5.846;2024-03-08T12:07:14;10.60;67.30
52787;DHT22;38661;53.152;5.846;2024-03-08T12:09:44;10.60;67.40
52787;DHT22;38661;53.152;5.846;2024-03-08T12:12:30;10.70;67.10
52787;DHT22;38661;53.152;5.846;2024-03-08T12:14:57;10.70;65.80
52787;DHT22;38661;53.152;5.846;2024-03-08T12:17:23;10.80;63.30
52787;DHT22;38661;53.152;5.846;2024-03-08T12:19:49;10.80;65.20
52787;DHT22;38661;53.152;5.846;2024-03-08T12:22:15;11.00;65.40
52787;DHT22;38661;53.152;5.846;2024-03-08T12:24:41;11.20;66.00
52787;DHT22;38661;53.152;5.846;2024-03-08T12:27:20;11.30;65.50
52787;DHT22;38661;53.152;5.846;2024-03-08T12:29:46;11.50;64.40
52787;DHT22;38661;53.152;5.846;2024-03-08T12:32:12;11.50;64.70
52787;DHT22;38661;53.152;5.846;2024-03-08T12:34:38;11.60;64.60
52787;DHT22;38661;53.152;5.846;2024-03-08T12:37:04;11.60;62.30
52787;DHT22;38661;53.152;5.846;2024-03-08T12:39:32;11.80;63.90
52787;DHT22;38661;53.152;5.846;2024-03-08T12:41:58;12.00;64.60
52787;DHT22;38661;53.152;5.846;2024-03-08T12:44:25;12.00;64.40
52787;DHT22;38661;53.152;5.846;2024-03-08T12:46:51;12.00;63.30
52787;DHT22;38661;53.152;5.846;2024-03-08T12:49:19;12.10;63.80
52787;DHT22;38661;53.152;5.846;2024-03-08T12:51:48;12.10;62.90
52787;DHT22;38661;53.152;5.846;2024-03-08T12:54:14;12.20;62.70
52787;DHT22;38661;53.152;5.846;2024-03-08T12:56:40;12.30;61.60
52787;DHT22;38661;53.152;5.846;2024-03-08T12:59:07;12.40;62.60
52787;DHT22;38661;53.152;5.846;2024-03-08T13:01:34;12.40;62.80
52787;DHT22;38661;53.152;5.846;2024-03-08T13:04:03;12.30;61.50
52787;DHT22;38661;53.152;5.846;2024-03-08T13:06:29;12.20;60.00
52787;DHT22;38661;53.152;5.846;2024-03-08T13:08:56;12.40;61.50
52787;DHT22;38661;53.152;5.846;2024-03-08T13:11:24;12.30;60.10
52787;DHT22;38661;53.152;5.846;2024-03-08T13:13:50;12.40;59.60
52787;DHT22;38661;53.152;5.846;2024-03-08T13:16:17;12.40;60.30
52787;DHT22;38661;53.152;5.846;2024-03-08T13:18:45;12.50;60.80
52787;DHT22;38661;53.152;5.846;2024-03-08T13:21:11;12.50;60.50
52787;DHT22;38661;53.152;5.846;2024-03-08T13:23:40;12.50;58.20
52787;DHT22;38661;53.152;5.846;2024-03-08T13:26:07;12.50;59.90
52787;DHT22;38661;53.152;5.846;2024-03-08T13:28:33;12.60;59.90
52787;DHT22;38661;53.152;5.846;2024-03-08T13:31:05;12.70;59.80
52787;DHT22;38661;53.152;5.846;2024-03-08T13:33:38;12.70;58.80
52787;DHT22;38661;53.152;5.846;2024-03-08T13:36:05;12.90;58.60
52787;DHT22;38661;53.152;5.846;2024-03-08T13:38:35;13.00;58.50
52787;DHT22;38661;53.152;5.846;2024-03-08T13:41:02;13.10;57.90
52787;DHT22;38661;53.152;5.846;2024-03-08T13:43:28;13.10;58.40
52787;DHT22;38661;53.152;5.846;2024-03-08T13:45:54;13.10;58.50
52787;DHT22;38661;53.152;5.846;2024-03-08T13:48:21;13.00;56.70
52787;DHT22;38661;53.152;5.846;2024-03-08T13:50:48;13.00;56.90
52787;DHT22;38661;53.152;5.846;2024-03-08T13:53:15;13.10;57.70
52787;DHT22;38661;53.152;5.846;2024-03-08T13:55:41;13.10;58.50
52787;DHT22;38661;53.152;5.846;2024-03-08T13:58:06;13.10;58.70
52787;DHT22;38661;53.152;5.846;2024-03-08T14:00:38;13.00;58.50
52787;DHT22;38661;53.152;5.846;2024-03-08T14:03:07;13.00;59.80
52787;DHT22;38661;53.152;5.846;2024-03-08T14:05:32;12.80;58.20
52787;DHT22;38661;53.152;5.846;2024-03-08T14:08:01;12.90;59.20
52787;DHT22;38661;53.152;5.846;2024-03-08T14:10:29;13.00;59.00
52787;DHT22;38661;53.152;5.846;2024-03-08T14:12:57;13.00;59.00
52787;DHT22;38661;53.152;5.846;2024-03-08T14:15:23;13.00;57.10
52787;DHT22;38661;53.152;5.846;2024-03-08T14:17:54;13.00;57.90
52787;DHT22;38661;53.152;5.846;2024-03-08T14:20:21;13.10;57.90
52787;DHT22;38661;53.152;5.846;2024-03-08T14:22:54;13.10;58.40
52787;DHT22;38661;53.152;5.846;2024-03-08T14:25:26;13.20;58.20
52787;DHT22;38661;53.152;5.846;2024-03-08T14:27:55;13.10;56.20
52787;DHT22;38661;53.152;5.846;2024-03-08T14:30:23;13.00;54.10
52787;DHT22;38661;53.152;5.846;2024-03-08T14:33:04;13.20;56.40
52787;DHT22;38661;53.152;5.846;2024-03-08T14:35:31;13.30;54.50
52787;DHT22;38661;53.152;5.846;2024-03-08T14:37:57;13.40;56.00
52787;DHT22;38661;53.152;5.846;2024-03-08T14:40:26;13.40;55.10
52787;DHT22;38661;53.152;5.846;2024-03-08T14:42:52;13.30;53.70
52787;DHT22;38661;53.152;5.846;2024-03-08T14:45:19;13.20;53.70
52787;DHT22;38661;53.152;5.846;2024-03-08T14:47:49;13.30;55.10
52787;DHT22;38661;53.152;5.846;2024-03-08T14:50:16;13.40;56.10
52787;DHT22;38661;53.152;5.846;2024-03-08T14:52:43;13.10;53.70
52787;DHT22;38661;53.152;5.846;2024-03-08T14:55:09;12.90;53.90
52787;DHT22;38661;53.152;5.846;2024-03-08T14:57:40;13.00;55.20
52787;DHT22;38661;53.152;5.846;2024-03-08T15:00:06;13.00;54.10
52787;DHT22;38661;53.152;5.846;2024-03-08T15:02:33;12.90;53.80
52787;DHT22;38661;53.152;5.846;2024-03-08T15:05:03;12.80;53.90
52787;DHT22;38661;53.152;5.846;2024-03-08T15:07:34;12.70;54.40
52787;DHT22;38661;53.152;5.846;2024-03-08T15:10:00;12.90;55.80
52787;DHT22;38661;53.152;5.846;2024-03-08T15:12:26;12.70;55.30
52787;DHT22;38661;53.152;5.846;2024-03-08T15:14:53;12.60;55.30
52787;DHT22;38661;53.152;5.846;2024-03-08T15:17:20;12.60;54.70
52787;DHT22;38661;53.152;5.846;2024-03-08T15:19:49;12.40;55.10
52787;DHT22;38661;53.152;5.846;2024-03-08T15:22:15;12.50;55.20
52787;DHT22;38661;53.152;5.846;2024-03-08T15:24:44;12.50;55.10
52787;DHT22;38661;53.152;5.846;2024-03-08T15:27:10;12.30;54.10
52787;DHT22;38661;53.152;5.846;2024-03-08T15:29:35;12.30;54.90
52787;DHT22;38661;53.152;5.846;2024-03-08T15:32:02;12.20;54.50
52787;DHT22;38661;53.152;5.846;2024-03-08T15:34:28;12.10;54.80
52787;DHT22;38661;53.152;5.846;2024-03-08T15:36:54;12.00;55.40
52787;DHT22;38661;53.152;5.846;2024-03-08T15:39:20;12.00;56.10
52787;DHT22;38661;53.152;5.846;2024-03-08T15:41:49;11.80;55.90
52787;DHT22;38661;53.152;5.846;2024-03-08T15:44:15;11.90;56.80
52787;DHT22;38661;53.152;5.846;2024-03-08T15:46:41;12.00;58.00
52787;DHT22;38661;53.152;5.846;2024-03-08T15:49:07;12.00;58.50
52787;DHT22;38661;53.152;5.846;2024-03-08T15:51:34;11.80;57.40